La Push, WA

2:36 PM PDT on July 22, 2017 (GMT -0700)
MLAPW1 | | Change Station

Elev 0 ft 47.91 °N, 124.64 °W | Updated 82 days ago

Overcast
Overcast
44.0 °F
Feels Like 41 °F
N
5.0
Wind Variable Wind from ENE
Gusts 6.0 mph

Today
High -- | Low -- °F
--% Chance of Precip.
Yesterday
High -- | Low -- °F
Precip. -- in
Pressure 30.20 in
Visibility 4.0 miles
Clouds Overcast 500 ft
Windchill 41 °F
Dew Point Not available.
Humidity Not available.
Rainfall in
Snow Depth Not available.
5:43 AM 9:06 PM
Waning Crescent, 0% visible
SPECI KUIL 222133Z AUTO 24004KT 4SM BR OVC005 18/17 A3020 RMK AO2 RAB2056E06 CIG 004V010 P0000 T01780167
Pressure 30.20 in
Visibility 4.0 miles
Clouds Overcast 500 ft
Windchill 41 °F
Dew Point Not available.
Humidity Not available.
Rainfall in
Snow Depth Not available.
5:43 AM 9:06 PM
Waning Crescent, 0% visible
SPECI KUIL 222133Z AUTO 24004KT 4SM BR OVC005 18/17 A3020 RMK AO2 RAB2056E06 CIG 004V010 P0000 T01780167

Get Severe Weather Alerts

Thanks for signing up!

Be on the lookout for a verification email in your inbox.

You'll start receiving the daily forecast at 6 AM.

×

10-Day Weather Forecast

Almanac

Astronomy

Jul. 22, 2017 Rise Set
Actual Time
Civil Twilight
Nautical Twilight
Astronomical Twilight
Moon
Length of Visible Light
Length of Day
Tomorrow will be .
, % of the Moon is Illuminated

Today's Extremes

State Highs State Lows

Community

WunderPhotos

Category 6

Welcome to Category 6. This is the collective home for Weather Underground's featured writeups by Dr. Jeff Masters (right), Bob Henson (left), Chris Burt, and other regular contributors.

Nearby

Air Quality

  Air Quality AQ Index Pollutant
Not available.

Snow Depth

Station Depth Elevation

Earthquake Activity

City Distance Mag. Time & Date
Minimum magnitude displayed is 2.5.

Coastal Water Temperatures

Place Temperature

Stations

Nearby Weather Stations

Station Location Temp. Windchill Dew Point Humidity Wind Precip. Elev Updated Type
                   

Watches & Warnings

There are currently no watches in effect.